Time;durP1;ratioP1;P1;durP2;ratioP2;P2;SDS_P1;SDS_P2;PMS_P1;PMS_P2;Temp;Humidity;BMP_temperature;BMP_pressure;BME280_temperature;BME280_humidity;BME280_pressure;Samples;Min_cycle;Max_cycle;Signal;HPM_P1;HPM_P2
2023/07/23 00:02:01;;;;;;;0.90;0.50;;;20.40;1.00;;;;;;5093599;28;20467;-49
2023/07/23 00:04:28;;;;;;;1.50;0.60;;;20.40;1.00;;;;;;5093792;28;20908;-50
2023/07/23 00:06:55;;;;;;;0.90;0.60;;;20.40;1.00;;;;;;5092724;28;20426;-46
2023/07/23 00:09:24;;;;;;;0.93;0.50;;;20.30;1.00;;;;;;5091080;28;20470;-48
2023/07/23 00:11:51;;;;;;;2.33;0.50;;;20.20;1.00;;;;;;5091876;28;20487;-48
2023/07/23 00:14:19;;;;;;;0.88;0.60;;;20.20;1.00;;;;;;5092475;28;20422;-51
2023/07/23 00:16:46;;;;;;;0.80;0.50;;;20.10;1.00;;;;;;5093802;28;20423;-52
2023/07/23 00:19:19;;;;;;;0.70;0.50;;;20.20;1.00;;;;;;5096995;28;20423;-51
2023/07/23 00:21:46;;;;;;;0.90;0.50;;;20.10;1.00;;;;;;5096582;28;20850;-49
2023/07/23 00:24:14;;;;;;;0.80;0.50;;;20.20;1.00;;;;;;5096406;28;20436;-49
2023/07/23 00:26:42;;;;;;;0.90;0.70;;;20.20;1.00;;;;;;5096562;28;20625;-50
2023/07/23 00:29:09;;;;;;;0.80;0.50;;;20.10;1.00;;;;;;5097362;28;20725;-49
2023/07/23 00:31:36;;;;;;;0.82;0.50;;;20.10;1.00;;;;;;5097140;28;20437;-51
2023/07/23 00:34:04;;;;;;;1.27;0.60;;;20.00;1.00;;;;;;5097187;28;20457;-50
2023/07/23 00:36:31;;;;;;;0.90;0.60;;;20.00;1.00;;;;;;5097322;28;20429;-50
2023/07/23 00:38:58;;;;;;;1.00;0.55;;;19.90;1.00;;;;;;5097416;28;20426;-48
2023/07/23 00:41:25;;;;;;;1.10;0.60;;;19.80;1.00;;;;;;5096961;28;20425;-46
2023/07/23 00:43:53;;;;;;;1.10;0.60;;;19.80;1.00;;;;;;5095150;28;20426;-51
2023/07/23 00:46:21;;;;;;;0.90;0.60;;;19.90;1.00;;;;;;5095698;28;20426;-48
2023/07/23 00:48:48;;;;;;;1.00;0.60;;;19.90;1.00;;;;;;5095267;28;20433;-50
2023/07/23 00:51:15;;;;;;;1.48;0.70;;;19.90;1.00;;;;;;5095425;28;20430;-47
2023/07/23 00:53:43;;;;;;;0.90;0.60;;;19.90;1.00;;;;;;5094859;28;20751;-50
2023/07/23 00:56:10;;;;;;;0.90;0.50;;;19.80;1.00;;;;;;5094977;28;20425;-50
2023/07/23 00:58:37;;;;;;;0.80;0.60;;;19.70;1.00;;;;;;5096248;28;20430;-46
2023/07/23 01:01:08;;;;;;;0.80;0.50;;;19.60;1.00;;;;;;5095880;28;20451;-48
2023/07/23 01:03:35;;;;;;;0.82;0.60;;;19.60;1.00;;;;;;5096208;28;20841;-47
2023/07/23 01:06:04;;;;;;;1.45;0.60;;;19.50;1.00;;;;;;5096001;28;20837;-49
2023/07/23 01:08:33;;;;;;;0.80;0.60;;;19.50;1.00;;;;;;5092594;28;20839;-51
2023/07/23 01:11:01;;;;;;;1.73;0.70;;;19.40;1.00;;;;;;5091743;28;20509;-52
2023/07/23 01:13:28;;;;;;;0.70;0.50;;;19.40;1.00;;;;;;5091421;28;20426;-47
2023/07/23 01:15:57;;;;;;;1.10;0.60;;;19.40;1.00;;;;;;5091967;28;20463;-49
2023/07/23 01:18:27;;;;;;;0.70;0.50;;;19.30;1.00;;;;;;5092448;28;20421;-46
2023/07/23 01:20:54;;;;;;;0.80;0.50;;;19.30;1.00;;;;;;5093938;28;20475;-50
2023/07/23 01:23:23;;;;;;;0.80;0.60;;;19.30;1.00;;;;;;5095571;28;20838;-47
2023/07/23 01:25:50;;;;;;;0.80;0.50;;;19.30;1.00;;;;;;5096403;28;20426;-46
2023/07/23 01:28:17;;;;;;;1.00;0.60;;;19.20;1.00;;;;;;5095067;28;20745;-48
2023/07/23 01:30:44;;;;;;;1.00;0.60;;;19.20;1.00;;;;;;5094384;28;20432;-46
2023/07/23 01:33:12;;;;;;;1.60;0.50;;;19.20;1.00;;;;;;5094534;28;20562;-46
2023/07/23 01:35:39;;;;;;;0.80;0.50;;;19.20;1.00;;;;;;5094118;28;20418;-46
2023/07/23 01:38:07;;;;;;;1.15;0.60;;;19.20;1.00;;;;;;5093216;28;20689;-47
2023/07/23 01:40:36;;;;;;;0.85;0.50;;;19.20;1.00;;;;;;5093402;28;20425;-49
2023/07/23 01:43:04;;;;;;;0.90;0.50;;;19.30;1.00;;;;;;5094908;28;20428;-52
2023/07/23 01:45:31;;;;;;;0.88;0.60;;;19.40;1.00;;;;;;5096345;28;20849;-50
2023/07/23 01:47:58;;;;;;;0.80;0.50;;;19.50;1.00;;;;;;5096257;28;20483;-47
2023/07/23 01:50:24;;;;;;;0.80;0.60;;;19.50;1.00;;;;;;5096126;28;20842;-48
2023/07/23 01:52:51;;;;;;;1.30;0.68;;;19.50;1.00;;;;;;5095620;28;20433;-45
2023/07/23 01:55:18;;;;;;;1.50;0.50;;;19.50;1.00;;;;;;5094787;28;20426;-48
2023/07/23 01:57:46;;;;;;;0.90;0.50;;;19.50;1.00;;;;;;5095942;28;20494;-47
2023/07/23 02:00:14;;;;;;;1.02;0.50;;;19.50;1.00;;;;;;5095860;28;20425;-46
2023/07/23 02:02:41;;;;;;;0.95;0.60;;;19.50;1.00;;;;;;5095585;28;20410;-50
2023/07/23 02:05:08;;;;;;;0.80;0.50;;;19.50;1.00;;;;;;5095819;28;20424;-47
2023/07/23 02:07:35;;;;;;;1.10;0.60;;;19.40;1.00;;;;;;5095623;28;20430;-53
2023/07/23 02:10:03;;;;;;;0.80;0.50;;;19.30;1.00;;;;;;5094821;28;20784;-47
2023/07/23 02:12:30;;;;;;;0.80;0.60;;;19.30;1.00;;;;;;5094928;28;20791;-47
2023/07/23 02:14:58;;;;;;;1.10;0.50;;;19.30;1.00;;;;;;5094732;28;20455;-46
2023/07/23 02:17:26;;;;;;;0.80;0.50;;;19.30;1.00;;;;;;5094536;28;20422;-47
2023/07/23 02:19:53;;;;;;;1.00;0.50;;;19.30;1.00;;;;;;5095226;28;20414;-48
2023/07/23 02:22:20;;;;;;;0.80;0.50;;;19.30;1.00;;;;;;5094290;28;20487;-48
2023/07/23 02:24:47;;;;;;;1.00;0.60;;;19.30;1.00;;;;;;5095158;28;20437;-47
2023/07/23 02:27:15;;;;;;;1.00;0.50;;;19.30;1.00;;;;;;5094358;28;20753;-51
2023/07/23 02:29:42;;;;;;;0.93;0.60;;;19.30;1.00;;;;;;5095406;28;20467;-50
2023/07/23 02:32:11;;;;;;;1.00;0.60;;;19.40;1.00;;;;;;5094896;28;20418;-46
2023/07/23 02:34:38;;;;;;;0.77;0.50;;;19.30;1.00;;;;;;5095150;28;20433;-51
2023/07/23 02:37:05;;;;;;;1.10;0.50;;;19.40;1.00;;;;;;5095463;28;20687;-50
2023/07/23 02:39:32;;;;;;;0.80;0.50;;;19.40;1.00;;;;;;5094479;28;20430;-50
2023/07/23 02:41:59;;;;;;;0.90;0.60;;;19.40;1.00;;;;;;5094509;28;20528;-49
2023/07/23 02:44:27;;;;;;;0.93;0.50;;;19.40;1.00;;;;;;5093744;28;20464;-49
2023/07/23 02:46:54;;;;;;;0.70;0.50;;;19.40;1.00;;;;;;5094855;28;20417;-49
2023/07/23 02:49:22;;;;;;;1.00;0.60;;;19.40;1.00;;;;;;5094601;28;20444;-49
2023/07/23 02:51:49;;;;;;;0.77;0.50;;;19.40;1.00;;;;;;5095342;28;20429;-45
2023/07/23 02:54:16;;;;;;;0.70;0.50;;;19.40;1.00;;;;;;5094796;28;20498;-50
2023/07/23 02:56:43;;;;;;;1.60;0.70;;;19.30;1.00;;;;;;5094406;28;20421;-46
2023/07/23 02:59:10;;;;;;;0.80;0.60;;;19.40;1.00;;;;;;5094397;28;20483;-50
2023/07/23 03:01:37;;;;;;;0.85;0.50;;;19.50;1.00;;;;;;5094987;28;20429;-48
2023/07/23 03:04:04;;;;;;;0.80;0.50;;;19.50;1.00;;;;;;5095064;28;20428;-48
2023/07/23 03:06:33;;;;;;;0.77;0.50;;;19.50;1.00;;;;;;5094946;28;20437;-49
2023/07/23 03:09:00;;;;;;;0.85;0.60;;;19.50;1.00;;;;;;5093012;28;20771;-49
2023/07/23 03:11:27;;;;;;;0.80;0.50;;;19.50;1.00;;;;;;5094561;28;20417;-47
2023/07/23 03:13:54;;;;;;;1.10;0.60;;;19.40;1.00;;;;;;5095103;28;20856;-47
2023/07/23 03:16:21;;;;;;;1.15;0.60;;;19.30;1.00;;;;;;5094664;28;20434;-49
2023/07/23 03:18:47;;;;;;;1.30;0.50;;;19.40;1.00;;;;;;5094613;28;20426;-48
2023/07/23 03:21:15;;;;;;;0.90;0.50;;;19.30;1.00;;;;;;5094711;28;20433;-51
2023/07/23 03:23:43;;;;;;;1.00;0.40;;;19.30;1.00;;;;;;5094543;28;20447;-50
2023/07/23 03:26:10;;;;;;;0.80;0.50;;;19.20;1.00;;;;;;5094641;28;20414;-47
2023/07/23 03:28:37;;;;;;;0.70;0.50;;;19.20;1.00;;;;;;5094957;28;20433;-49
2023/07/23 03:31:04;;;;;;;1.00;0.60;;;19.20;1.00;;;;;;5094491;28;20436;-50
2023/07/23 03:33:31;;;;;;;0.90;0.50;;;19.10;1.00;;;;;;5094527;28;20853;-47
2023/07/23 03:35:58;;;;;;;0.90;0.52;;;19.10;1.00;;;;;;5094285;28;20430;-48
2023/07/23 03:38:25;;;;;;;0.70;0.50;;;19.10;1.00;;;;;;5094108;28;20422;-47
2023/07/23 03:40:54;;;;;;;0.90;0.50;;;19.10;1.00;;;;;;5094242;28;20837;-49
2023/07/23 03:43:21;;;;;;;0.80;0.60;;;18.90;1.00;;;;;;5094111;28;20933;-51
2023/07/23 03:45:48;;;;;;;0.80;0.52;;;18.90;1.00;;;;;;5094663;28;20504;-49
2023/07/23 03:48:15;;;;;;;1.00;0.60;;;18.90;1.00;;;;;;5088562;28;20423;-48
2023/07/23 03:50:42;;;;;;;0.93;0.50;;;18.90;1.00;;;;;;5074724;28;20492;-54
2023/07/23 03:53:09;;;;;;;0.80;0.50;;;18.90;1.00;;;;;;5078038;28;20435;-50
2023/07/23 03:55:36;;;;;;;1.35;0.50;;;19.00;1.00;;;;;;5077803;28;20427;-51
2023/07/23 03:58:04;;;;;;;0.80;0.50;;;18.90;1.00;;;;;;5078130;28;20427;-49
2023/07/23 04:00:31;;;;;;;2.30;0.60;;;18.80;1.00;;;;;;5077584;28;20430;-52
2023/07/23 04:02:58;;;;;;;1.15;0.50;;;18.70;1.00;;;;;;5077966;28;20427;-49
2023/07/23 04:05:25;;;;;;;0.80;0.50;;;18.60;1.00;;;;;;5077596;28;20481;-48
2023/07/23 04:07:52;;;;;;;1.30;0.60;;;18.70;1.00;;;;;;5077845;28;20878;-50
2023/07/23 04:10:19;;;;;;;0.80;0.50;;;18.80;1.00;;;;;;5077993;28;20478;-54
2023/07/23 04:12:46;;;;;;;0.73;0.60;;;18.80;1.00;;;;;;5077959;28;20423;-50
2023/07/23 04:15:14;;;;;;;0.90;0.50;;;18.90;1.00;;;;;;5077334;28;20473;-50
2023/07/23 04:17:41;;;;;;;0.90;0.60;;;18.90;1.00;;;;;;5078122;28;20473;-48
2023/07/23 04:20:09;;;;;;;0.90;0.50;;;18.90;1.00;;;;;;5077614;28;20478;-51
2023/07/23 04:22:36;;;;;;;0.70;0.40;;;18.90;1.00;;;;;;5077475;28;20431;-55
2023/07/23 04:25:04;;;;;;;1.20;0.50;;;18.90;1.00;;;;;;5076570;28;20473;-58
2023/07/23 04:27:31;;;;;;;1.08;0.60;;;18.90;1.00;;;;;;5076400;28;21029;-55
2023/07/23 04:29:58;;;;;;;1.00;0.50;;;18.90;1.00;;;;;;5077481;28;20485;-57
2023/07/23 04:32:26;;;;;;;0.77;0.50;;;18.90;1.00;;;;;;5077074;28;20431;-57
2023/07/23 04:34:53;;;;;;;0.90;0.50;;;18.90;1.00;;;;;;5077365;28;20431;-57
2023/07/23 04:37:20;;;;;;;1.00;0.60;;;19.00;1.00;;;;;;5077401;28;20454;-57
2023/07/23 04:39:47;;;;;;;0.80;0.50;;;19.00;1.00;;;;;;5076908;28;20571;-57
2023/07/23 04:42:14;;;;;;;1.00;0.50;;;19.10;1.00;;;;;;5076740;28;20548;-57
2023/07/23 04:44:42;;;;;;;1.60;0.60;;;19.00;1.00;;;;;;5076353;28;21491;-57
2023/07/23 04:47:09;;;;;;;0.90;0.50;;;19.10;1.00;;;;;;5076965;28;20435;-55
2023/07/23 04:49:37;;;;;;;1.30;0.50;;;19.10;1.00;;;;;;5077002;28;20435;-55
2023/07/23 04:52:05;;;;;;;0.70;0.50;;;19.10;1.00;;;;;;5076634;28;20435;-58
2023/07/23 04:54:32;;;;;;;1.08;0.47;;;19.10;1.00;;;;;;5076393;28;20933;-57
2023/07/23 04:56:59;;;;;;;1.30;0.57;;;19.20;1.00;;;;;;5076817;28;20428;-57
2023/07/23 04:59:26;;;;;;;0.80;0.50;;;19.20;1.00;;;;;;5076942;28;20412;-56
2023/07/23 05:01:53;;;;;;;0.90;0.50;;;19.20;1.00;;;;;;5075239;28;20427;-56
2023/07/23 05:04:20;;;;;;;1.10;0.50;;;19.20;1.00;;;;;;5075712;28;20789;-56
2023/07/23 05:06:48;;;;;;;0.80;0.50;;;19.20;1.00;;;;;;5075164;28;20435;-58
2023/07/23 05:09:15;;;;;;;1.10;0.50;;;19.30;1.00;;;;;;5074885;28;20515;-58
2023/07/23 05:11:42;;;;;;;1.42;0.50;;;19.40;1.00;;;;;;5074889;28;20520;-60
2023/07/23 05:14:09;;;;;;;0.85;0.50;;;19.50;1.00;;;;;;5076236;28;20435;-59
2023/07/23 05:16:36;;;;;;;0.90;0.50;;;19.70;1.00;;;;;;5076673;28;20743;-58
2023/07/23 05:19:04;;;;;;;0.80;0.50;;;19.70;1.00;;;;;;5076246;28;20531;-56
2023/07/23 05:21:34;;;;;;;0.70;0.50;;;19.80;1.00;;;;;;5076284;28;20530;-56
2023/07/23 05:24:02;;;;;;;1.30;0.43;;;19.80;1.00;;;;;;5075774;28;20435;-56
2023/07/23 05:26:29;;;;;;;0.80;0.50;;;19.80;1.00;;;;;;5076177;28;20419;-58
2023/07/23 05:28:56;;;;;;;0.80;0.50;;;19.80;1.00;;;;;;5076621;28;20420;-57
2023/07/23 05:31:24;;;;;;;0.80;0.50;;;19.80;1.00;;;;;;5076211;28;20920;-57
2023/07/23 05:33:51;;;;;;;0.93;0.52;;;19.90;1.00;;;;;;5076674;28;20432;-57
2023/07/23 05:36:18;;;;;;;0.80;0.50;;;19.90;1.00;;;;;;5074606;28;20436;-57
2023/07/23 05:38:45;;;;;;;0.70;0.50;;;19.90;1.00;;;;;;5074780;28;20489;-57
2023/07/23 05:41:13;;;;;;;1.10;0.60;;;20.00;1.00;;;;;;5074645;28;20851;-58
2023/07/23 05:43:40;;;;;;;0.70;0.45;;;20.10;1.00;;;;;;5074500;28;20465;-57
2023/07/23 05:46:08;;;;;;;0.82;0.50;;;20.10;1.00;;;;;;5074539;28;20851;-55
2023/07/23 05:48:35;;;;;;;0.80;0.50;;;20.20;1.00;;;;;;5074789;28;20433;-56
2023/07/23 05:51:02;;;;;;;0.90;0.52;;;20.30;1.00;;;;;;5075087;28;20736;-58
2023/07/23 05:53:29;;;;;;;1.00;0.43;;;20.40;1.00;;;;;;5075588;28;20839;-53
2023/07/23 05:55:56;;;;;;;0.75;0.43;;;20.40;1.00;;;;;;5075921;28;20482;-58
2023/07/23 05:58:27;;;;;;;0.80;0.50;;;20.50;1.00;;;;;;5075604;28;20847;-55
2023/07/23 06:00:54;;;;;;;1.20;0.50;;;20.60;1.00;;;;;;5075320;28;20427;-57
2023/07/23 06:03:21;;;;;;;0.63;0.40;;;20.80;1.00;;;;;;5075961;28;20492;-56
2023/07/23 06:05:48;;;;;;;0.80;0.57;;;20.90;1.00;;;;;;5075609;28;20427;-57
2023/07/23 06:08:15;;;;;;;0.82;0.50;;;21.00;1.00;;;;;;5075032;28;20424;-58
2023/07/23 06:10:42;;;;;;;0.70;0.50;;;21.10;1.00;;;;;;5074214;28;20740;-57
2023/07/23 06:13:09;;;;;;;0.80;0.50;;;21.30;1.00;;;;;;5074580;28;20434;-56
2023/07/23 06:15:37;;;;;;;0.70;0.50;;;21.50;1.00;;;;;;5073609;28;20432;-58
2023/07/23 06:18:05;;;;;;;0.80;0.50;;;21.70;1.00;;;;;;5074542;28;20735;-57
2023/07/23 06:20:31;;;;;;;0.70;0.50;;;22.00;1.00;;;;;;5074953;28;20447;-58
2023/07/23 06:23:00;;;;;;;1.65;0.50;;;22.20;1.00;;;;;;5075048;28;20419;-57
2023/07/23 06:25:27;;;;;;;1.00;0.50;;;22.20;1.00;;;;;;5075342;28;20439;-57
2023/07/23 06:27:54;;;;;;;0.90;0.50;;;22.40;1.00;;;;;;5075318;28;20431;-56
2023/07/23 06:30:21;;;;;;;1.50;0.50;;;22.40;1.00;;;;;;5075295;28;20854;-57
2023/07/23 06:32:49;;;;;;;0.80;0.50;;;22.40;1.00;;;;;;5075216;28;20427;-56
2023/07/23 06:35:16;;;;;;;0.90;0.50;;;22.40;1.00;;;;;;5074252;28;20901;-56
2023/07/23 06:37:43;;;;;;;2.17;0.50;;;22.30;1.00;;;;;;5075573;28;20777;-57
2023/07/23 06:40:10;;;;;;;0.90;0.50;;;22.30;1.00;;;;;;5074555;28;20476;-55
2023/07/23 06:42:37;;;;;;;0.80;0.50;;;22.30;1.00;;;;;;5074740;28;20435;-56
2023/07/23 06:45:05;;;;;;;0.80;0.50;;;22.20;1.00;;;;;;5073552;28;20427;-56
2023/07/23 06:47:32;;;;;;;1.30;0.50;;;22.30;1.00;;;;;;5072783;28;20477;-56
2023/07/23 06:50:01;;;;;;;0.80;0.50;;;22.40;1.00;;;;;;5075063;28;20847;-53
2023/07/23 06:52:28;;;;;;;0.82;0.50;;;22.40;1.00;;;;;;5074056;28;20431;-57
2023/07/23 06:54:55;;;;;;;0.90;0.50;;;22.50;1.00;;;;;;5072957;28;20431;-57
2023/07/23 06:57:22;;;;;;;0.80;0.50;;;22.60;1.00;;;;;;5070989;28;20743;-57
2023/07/23 06:59:49;;;;;;;1.98;0.50;;;22.60;1.00;;;;;;5073041;28;20427;-56
2023/07/23 07:02:16;;;;;;;0.90;0.50;;;22.70;1.00;;;;;;5071314;28;20420;-57
2023/07/23 07:04:43;;;;;;;0.80;0.50;;;22.80;1.00;;;;;;5073071;28;20481;-55
2023/07/23 07:07:11;;;;;;;0.90;0.50;;;22.90;1.00;;;;;;5074650;28;20424;-56
2023/07/23 07:09:38;;;;;;;0.70;0.50;;;23.10;1.00;;;;;;5073468;28;20431;-56
2023/07/23 07:12:06;;;;;;;0.98;0.50;;;22.90;1.00;;;;;;5072841;28;20428;-54
2023/07/23 07:14:33;;;;;;;1.30;0.50;;;22.90;1.00;;;;;;5072730;28;20485;-54
2023/07/23 07:17:00;;;;;;;0.90;0.50;;;22.80;1.00;;;;;;5074306;28;20416;-53
2023/07/23 07:19:27;;;;;;;1.70;0.50;;;22.90;1.00;;;;;;5074199;28;20462;-56
2023/07/23 07:21:54;;;;;;;0.70;0.50;;;23.00;1.00;;;;;;5074181;28;20431;-56
2023/07/23 07:24:23;;;;;;;0.95;0.50;;;23.10;1.00;;;;;;5074669;28;20452;-55
2023/07/23 07:26:50;;;;;;;1.10;0.50;;;23.20;1.00;;;;;;5075023;28;20435;-57
2023/07/23 07:29:17;;;;;;;1.10;0.40;;;23.40;1.00;;;;;;5076497;28;20423;-57
2023/07/23 07:31:44;;;;;;;0.70;0.50;;;23.40;1.00;;;;;;5076984;28;20493;-56
2023/07/23 07:34:12;;;;;;;1.10;0.50;;;23.50;1.00;;;;;;5076383;28;20728;-57
2023/07/23 07:36:39;;;;;;;0.80;0.50;;;23.50;1.00;;;;;;5077295;28;20432;-58
2023/07/23 07:39:06;;;;;;;1.10;0.50;;;23.70;1.00;;;;;;5077375;28;20522;-57
2023/07/23 07:41:35;;;;;;;0.70;0.50;;;23.70;1.00;;;;;;5076128;28;20443;-57
2023/07/23 07:44:02;;;;;;;1.10;0.50;;;23.90;1.00;;;;;;5071690;28;20443;-56
2023/07/23 07:46:29;;;;;;;1.10;0.50;;;24.20;1.00;;;;;;5073803;28;20450;-53
2023/07/23 07:48:56;;;;;;;0.70;0.50;;;24.30;1.00;;;;;;5071544;28;20496;-54
2023/07/23 07:51:23;;;;;;;1.20;0.50;;;24.40;1.00;;;;;;5073190;28;20531;-56
2023/07/23 07:53:50;;;;;;;0.80;0.50;;;24.50;1.00;;;;;;5076770;28;20512;-57
2023/07/23 07:56:18;;;;;;;1.08;0.52;;;24.50;1.00;;;;;;5072597;28;20431;-51
2023/07/23 07:58:47;;;;;;;0.70;0.40;;;24.60;1.00;;;;;;5077251;28;20537;-54
2023/07/23 08:01:15;;;;;;;1.40;0.50;;;24.50;1.00;;;;;;5074906;28;20435;-55
2023/07/23 08:03:42;;;;;;;0.80;0.50;;;24.50;1.00;;;;;;5075346;28;20431;-56
2023/07/23 08:06:11;;;;;;;1.40;0.50;;;24.70;1.00;;;;;;5070785;28;20437;-57
2023/07/23 08:08:41;;;;;;;0.70;0.50;;;24.60;1.00;;;;;;5074508;28;20453;-56
2023/07/23 08:11:09;;;;;;;0.63;0.40;;;24.60;1.00;;;;;;5075211;28;20904;-54
2023/07/23 08:13:37;;;;;;;0.90;0.50;;;24.70;1.00;;;;;;5075151;28;20463;-55
2023/07/23 08:16:07;;;;;;;0.70;0.47;;;24.80;1.00;;;;;;5073145;28;20526;-56
2023/07/23 08:18:35;;;;;;;1.30;0.60;;;24.90;1.00;;;;;;5074311;28;20720;-55
2023/07/23 08:21:02;;;;;;;0.70;0.50;;;25.00;1.00;;;;;;5076207;28;20521;-56
2023/07/23 08:23:30;;;;;;;1.00;0.50;;;25.20;1.00;;;;;;5073747;28;20705;-56
2023/07/23 08:25:59;;;;;;;0.90;0.60;;;25.20;1.00;;;;;;5075264;28;20525;-54
2023/07/23 08:28:29;;;;;;;0.73;0.50;;;25.20;1.00;;;;;;5076061;28;20432;-55
2023/07/23 08:30:56;;;;;;;1.10;0.40;;;25.10;1.00;;;;;;5075764;28;20489;-56
2023/07/23 08:33:28;;;;;;;1.45;0.50;;;25.10;1.00;;;;;;5075683;28;20751;-54
2023/07/23 08:35:55;;;;;;;1.13;0.52;;;25.30;1.00;;;;;;5075140;28;20550;-54
2023/07/23 08:38:23;;;;;;;0.80;0.40;;;25.30;1.00;;;;;;5074363;28;20427;-57
2023/07/23 08:40:58;;;;;;;0.90;0.40;;;25.10;1.00;;;;;;5075187;28;20502;-55
2023/07/23 08:44:01;;;;;;;0.70;0.40;;;25.30;1.00;;;;;;5075180;28;20530;-57
2023/07/23 08:46:28;;;;;;;0.80;0.50;;;25.40;1.00;;;;;;5072006;28;20736;-54
2023/07/23 08:49:09;;;;;;;0.87;0.50;;;25.40;1.00;;;;;;5075100;28;20801;-55
2023/07/23 08:51:43;;;;;;;0.60;0.40;;;25.40;1.00;;;;;;5073187;28;20439;-56
2023/07/23 08:54:10;;;;;;;0.73;0.50;;;25.40;1.00;;;;;;5075024;28;20435;-55
2023/07/23 08:56:39;;;;;;;0.93;0.40;;;25.20;1.00;;;;;;5074750;28;20435;-57
2023/07/23 08:59:07;;;;;;;0.77;0.50;;;25.10;1.00;;;;;;5073967;28;20435;-56
2023/07/23 09:01:35;;;;;;;0.90;0.50;;;25.20;1.00;;;;;;5075111;28;20462;-57
2023/07/23 09:04:06;;;;;;;1.40;0.50;;;25.50;1.00;;;;;;5076349;28;20423;-55
2023/07/23 09:06:35;;;;;;;0.60;0.40;;;25.60;1.00;;;;;;5075832;28;20522;-55
2023/07/23 09:09:07;;;;;;;0.73;0.50;;;25.80;1.00;;;;;;5076265;28;20485;-55
2023/07/23 09:11:35;;;;;;;1.80;0.50;;;25.70;1.00;;;;;;5074539;28;20489;-57
2023/07/23 09:14:03;;;;;;;1.40;0.40;;;25.70;1.00;;;;;;5074941;28;20435;-54
2023/07/23 09:16:30;;;;;;;0.63;0.50;;;25.70;1.00;;;;;;5072151;28;20497;-57
2023/07/23 09:18:57;;;;;;;0.60;0.40;;;25.70;1.00;;;;;;5076086;28;20424;-55
2023/07/23 09:21:25;;;;;;;0.80;0.40;;;25.70;1.00;;;;;;5074222;28;20442;-57
2023/07/23 09:23:55;;;;;;;0.80;0.40;;;25.60;1.00;;;;;;5072543;28;20443;-57
2023/07/23 09:26:24;;;;;;;0.60;0.40;;;25.70;1.00;;;;;;5075053;28;20431;-57
2023/07/23 09:28:52;;;;;;;0.70;0.40;;;25.80;1.00;;;;;;5074337;28;20455;-56
2023/07/23 09:31:26;;;;;;;0.70;0.40;;;25.90;1.00;;;;;;5068410;28;20527;-55
2023/07/23 09:33:54;;;;;;;0.70;0.40;;;26.10;1.00;;;;;;5070501;28;20815;-56
2023/07/23 09:36:22;;;;;;;0.80;0.30;;;26.00;1.00;;;;;;5073353;28;20530;-56
2023/07/23 09:38:58;;;;;;;0.60;0.40;;;25.80;1.00;;;;;;5056832;28;21138;-55
2023/07/23 09:41:30;;;;;;;1.08;0.40;;;25.90;1.00;;;;;;5051123;28;20783;-56
2023/07/23 09:44:02;;;;;;;0.50;0.30;;;25.60;1.00;;;;;;5053852;28;20422;-55
2023/07/23 09:46:31;;;;;;;0.60;0.30;;;25.50;1.00;;;;;;5055334;28;20486;-56
2023/07/23 09:48:59;;;;;;;0.90;0.30;;;25.60;1.00;;;;;;5055185;28;20429;-55
2023/07/23 09:51:26;;;;;;;0.80;0.40;;;25.70;1.00;;;;;;5052105;28;20429;-55
2023/07/23 09:53:53;;;;;;;0.60;0.32;;;25.60;1.00;;;;;;5052005;28;20514;-57
2023/07/23 09:56:23;;;;;;;0.60;0.40;;;25.70;1.00;;;;;;5058805;28;21553;-57
2023/07/23 09:58:51;;;;;;;1.20;0.60;;;25.80;1.00;;;;;;5073451;28;20869;-57
2023/07/23 10:01:20;;;;;;;0.60;0.47;;;25.90;1.00;;;;;;5072766;28;20538;-58
2023/07/23 10:03:48;;;;;;;0.60;0.40;;;26.00;1.00;;;;;;5074391;28;20469;-58
2023/07/23 10:06:20;;;;;;;0.67;0.40;;;26.10;1.00;;;;;;5073530;28;20426;-57
2023/07/23 10:08:48;;;;;;;0.60;0.30;;;26.30;1.00;;;;;;5070986;28;20816;-56
2023/07/23 10:11:17;;;;;;;0.50;0.40;;;26.70;1.00;;;;;;5072136;28;20488;-56
2023/07/23 10:13:47;;;;;;;0.70;0.35;;;26.70;1.00;;;;;;5073001;28;20439;-57
2023/07/23 10:16:19;;;;;;;0.80;0.40;;;26.50;1.00;;;;;;5071641;28;20439;-58
2023/07/23 10:18:48;;;;;;;1.70;0.60;;;26.40;1.00;;;;;;5071441;28;20493;-56
2023/07/23 10:21:15;;;;;;;0.70;0.40;;;26.60;1.00;;;;;;5072472;28;20431;-58
2023/07/23 10:23:43;;;;;;;0.70;0.40;;;26.70;1.00;;;;;;5071931;28;20736;-54
2023/07/23 10:26:20;;;;;;;0.60;0.40;;;26.80;1.00;;;;;;5073424;28;20498;-58
2023/07/23 10:28:49;;;;;;;0.60;0.40;;;26.70;1.00;;;;;;5071648;28;20494;-57
2023/07/23 10:31:21;;;;;;;0.90;0.40;;;26.50;1.00;;;;;;5072181;28;20439;-56
2023/07/23 10:33:50;;;;;;;0.90;0.40;;;26.40;1.00;;;;;;5072894;28;20431;-57
2023/07/23 10:36:18;;;;;;;0.50;0.30;;;26.80;1.00;;;;;;5071402;28;20863;-58
2023/07/23 10:38:46;;;;;;;0.80;0.40;;;27.00;1.00;;;;;;5072662;28;20435;-58
2023/07/23 10:41:14;;;;;;;0.68;0.40;;;27.60;1.00;;;;;;5073946;28;20424;-56
2023/07/23 10:43:46;;;;;;;0.70;0.40;;;27.60;1.00;;;;;;5073238;28;20932;-58
2023/07/23 10:46:18;;;;;;;0.80;0.50;;;27.40;1.00;;;;;;5068385;28;20434;-57
2023/07/23 10:48:48;;;;;;;0.70;0.50;;;27.30;1.00;;;;;;5075037;28;20735;-57
2023/07/23 10:51:16;;;;;;;0.60;0.40;;;27.80;1.00;;;;;;5075102;28;20465;-57
2023/07/23 10:53:54;;;;;;;0.60;0.40;;;28.40;1.00;;;;;;5073660;28;20505;-58
2023/07/23 10:56:24;;;;;;;0.70;0.40;;;28.00;1.00;;;;;;5074118;28;20569;-57
2023/07/23 10:58:51;;;;;;;0.60;0.40;;;27.80;1.00;;;;;;5073116;28;20466;-58
2023/07/23 11:01:24;;;;;;;1.00;0.50;;;27.60;1.00;;;;;;5072804;28;20480;-56
2023/07/23 11:03:55;;;;;;;0.70;0.40;;;27.40;1.00;;;;;;5072169;28;20435;-55
2023/07/23 11:06:29;;;;;;;0.70;0.50;;;27.00;1.00;;;;;;5073451;28;20420;-58
2023/07/23 11:08:58;;;;;;;0.70;0.40;;;27.20;1.00;;;;;;5070336;28;20443;-57
2023/07/23 11:11:37;;;;;;;0.70;0.40;;;27.40;1.00;;;;;;5072298;28;20843;-58
2023/07/23 11:14:16;;;;;;;0.90;0.40;;;27.70;1.00;;;;;;5073281;28;20510;-55
2023/07/23 11:16:45;;;;;;;1.08;0.40;;;27.70;1.00;;;;;;5072088;28;20882;-53
2023/07/23 11:19:13;;;;;;;0.70;0.40;;;27.80;1.00;;;;;;5072250;28;20831;-55
2023/07/23 11:21:45;;;;;;;0.73;0.50;;;27.90;1.00;;;;;;5070319;28;20481;-53
2023/07/23 11:24:12;;;;;;;0.68;0.40;;;27.90;1.00;;;;;;5072102;28;20445;-56
2023/07/23 11:26:41;;;;;;;0.90;0.50;;;27.80;1.00;;;;;;5072857;28;20427;-55
2023/07/23 11:29:08;;;;;;;0.80;0.50;;;28.10;1.00;;;;;;5053711;28;20429;-56
2023/07/23 11:31:35;;;;;;;0.80;0.50;;;28.40;1.00;;;;;;5061979;28;20438;-54
2023/07/23 11:34:05;;;;;;;0.80;0.60;;;28.50;1.00;;;;;;5074065;28;20474;-56
2023/07/23 11:36:33;;;;;;;0.80;0.50;;;28.60;1.00;;;;;;5071503;28;20546;-56
2023/07/23 11:39:01;;;;;;;0.70;0.50;;;28.80;1.00;;;;;;5072338;28;20489;-56
2023/07/23 11:41:29;;;;;;;0.80;0.50;;;28.90;1.00;;;;;;5072543;28;20428;-56
2023/07/23 11:43:58;;;;;;;0.77;0.50;;;29.30;1.00;;;;;;5073943;28;20697;-54
2023/07/23 11:46:25;;;;;;;1.10;0.50;;;29.90;1.00;;;;;;5072459;28;20419;-57
2023/07/23 11:48:54;;;;;;;1.30;0.50;;;30.00;1.00;;;;;;5070275;28;20843;-56
2023/07/23 11:51:23;;;;;;;0.90;0.50;;;29.80;1.00;;;;;;5071688;28;20740;-57
2023/07/23 11:53:52;;;;;;;0.80;0.50;;;29.40;1.00;;;;;;5065759;28;20435;-57
2023/07/23 11:56:23;;;;;;;0.80;0.50;;;29.10;1.00;;;;;;5069370;28;20482;-56
2023/07/23 11:58:51;;;;;;;0.80;0.50;;;29.30;1.00;;;;;;5067603;28;20820;-53
2023/07/23 12:01:18;;;;;;;1.00;0.50;;;29.50;1.00;;;;;;5070814;28;20427;-56
2023/07/23 12:03:46;;;;;;;0.80;0.40;;;29.50;1.00;;;;;;5069814;28;20500;-51
2023/07/23 12:06:14;;;;;;;0.80;0.50;;;29.40;1.00;;;;;;5071771;28;20423;-56
2023/07/23 12:08:45;;;;;;;0.70;0.40;;;29.30;1.00;;;;;;5072141;28;20508;-57
2023/07/23 12:11:14;;;;;;;0.90;0.50;;;29.30;1.00;;;;;;5070706;28;20551;-56
2023/07/23 12:13:45;;;;;;;0.70;0.40;;;29.20;1.00;;;;;;5074284;28;20439;-57
2023/07/23 12:16:32;;;;;;;0.80;0.50;;;28.90;1.00;;;;;;5074296;28;20439;-56
2023/07/23 12:19:03;;;;;;;0.80;0.50;;;28.60;1.00;;;;;;5074897;28;20431;-57
2023/07/23 12:21:30;;;;;;;1.05;0.50;;;28.20;1.00;;;;;;5073670;28;20526;-54
2023/07/23 12:24:10;;;;;;;0.70;0.40;;;28.20;1.00;;;;;;5074765;28;20812;-55
2023/07/23 12:26:37;;;;;;;0.73;0.50;;;28.30;1.00;;;;;;5072379;28;20422;-57
2023/07/23 12:29:05;;;;;;;0.63;0.50;;;28.30;1.00;;;;;;5075235;28;20895;-55
2023/07/23 12:31:32;;;;;;;1.57;0.40;;;27.90;1.00;;;;;;5074841;28;20774;-57
2023/07/23 12:33:59;;;;;;;0.70;0.40;;;27.50;1.00;;;;;;5074869;28;20726;-57
2023/07/23 12:36:26;;;;;;;0.80;0.50;;;27.60;1.00;;;;;;5074471;28;20871;-56
2023/07/23 12:38:53;;;;;;;0.80;0.50;;;27.70;1.00;;;;;;5075689;28;20435;-57
2023/07/23 12:41:21;;;;;;;0.70;0.50;;;27.80;1.00;;;;;;5074443;28;20481;-56
2023/07/23 12:43:48;;;;;;;0.70;0.50;;;27.80;1.00;;;;;;5075580;28;20416;-55
2023/07/23 12:46:15;;;;;;;0.80;0.50;;;27.50;1.00;;;;;;5073231;28;20854;-57
2023/07/23 12:48:43;;;;;;;0.82;0.50;;;27.40;1.00;;;;;;5075456;28;20504;-56
2023/07/23 12:51:10;;;;;;;0.90;0.50;;;27.40;1.00;;;;;;5075609;28;20432;-54
2023/07/23 12:53:37;;;;;;;1.20;0.50;;;27.60;1.00;;;;;;5074749;28;20431;-54
2023/07/23 12:56:04;;;;;;;0.73;0.50;;;27.60;1.00;;;;;;5074283;28;20439;-54
2023/07/23 12:58:33;;;;;;;1.00;0.60;;;27.50;1.00;;;;;;5075710;28;20431;-55
2023/07/23 13:01:00;;;;;;;0.98;0.50;;;27.40;1.00;;;;;;5076023;28;20891;-52
2023/07/23 13:03:27;;;;;;;0.70;0.50;;;27.20;1.00;;;;;;5074276;28;21019;-52